Toyofukumaru — JD2177 — position and weather

sailwx.info

Track history (hours):
 
Tides and Currents Weather Stations Pressure Air Temp Water Temp Dewpoint Dewpoint Depression Visibility Wind Speed Wind Dir Waves Ship Positions

Toyofukumaru

Last reported at 2015-Apr-27 21:32 UTC. Time now 2015-Apr-27 22:16 UTC.
Position N 35°36' E 140°06'.

Length 165 m; draft 6.2 m.

Type: Cargo ship. MMSI: 431200688.

Date/timePositionNaut miles runAvg speedWind from/ knotsBaromVisibWave heightAir tempDewpointWater temp
2015-Apr-27 21:32N 35°36' E 140°06'0 0.0
2015-Apr-27 20:27N 35°36' E 140°06'1010.8
2015-Apr-27 19:33N 35°31' E 139°56'1514.5
2015-Apr-27 18:33N 35°20' E 139°44'1111.1
2015-Apr-27 17:34N 35°09' E 139°46'1716.9
2015-Apr-27 16:33N 34°56' E 139°32'5818.0
2015-Apr-27 13:18N 34°26' E 138°31'178 6.2
2015-Apr-26 08:33N 33°57' E 134°59'1919.5
2015-Apr-26 07:33N 34°16' E 134°59'1918.8
2015-Apr-26 06:33N 34°35' E 135°04'  
2015-Apr-23 23:08N 34°32' E 134°42'1119.9
2015-Apr-23 22:33N 34°36' E 134°55'1212.2
2015-Apr-23 21:33N 34°26' E 135°03'1919.3
2015-Apr-23 20:33N 34°07' E 134°60'170 6.3
2015-Apr-22 17:33N 34°29' E 138°23'5717.8
2015-Apr-22 14:22N 34°55' E 139°25'1620.2
2015-Apr-22 13:33N 35°05' E 139°41'1413.7
2015-Apr-22 12:33N 35°18' E 139°44'7 6.6
2015-Apr-22 11:33N 35°23' E 139°39'0 0.0
2015-Apr-22 10:33N 35°23' E 139°39'0 0.0
2015-Apr-22 09:33N 35°23' E 139°39'0 0.0
2015-Apr-22 08:33N 35°23' E 139°39'0 0.0
2015-Apr-22 07:30N 35°23' E 139°39'1010.2
2015-Apr-22 06:33N 35°28' E 139°49'1514.8
2015-Apr-22 05:32N 35°36' E 140°05'0 0.0
2015-Apr-22 04:28N 35°36' E 140°05'0 0.0
2015-Apr-22 03:28N 35°36' E 140°05'0 0.0
2015-Apr-22 02:28N 35°36' E 140°05'0 0.0
2015-Apr-22 01:28N 35°36' E 140°05'0 0.0
2015-Apr-22 00:22N 35°36' E 140°05'0 0.0
2015-Apr-21 23:22N 35°36' E 140°05'0 0.0
2015-Apr-21 22:31N 35°36' E 140°05'9 9.9
2015-Apr-21 21:33N 35°31' E 139°55'1514.6
2015-Apr-21 20:33N 35°19' E 139°44'1413.7
2015-Apr-21 19:33N 35°06' E 139°46'1918.6
2015-Apr-21 18:33N 34°54' E 139°28'231 8.5
2015-Apr-20 15:20N 33°52' E 134°58'1620.3
2015-Apr-20 14:33N 34°08' E 134°58'1818.4
2015-Apr-20 13:33N 34°25' E 135°05'1210.8
2015-Apr-20 12:28N 34°30' E 135°18'0 0.0
2015-Apr-20 11:28N 34°30' E 135°18'0 0.0
2015-Apr-20 10:22N 34°30' E 135°18'0 0.0
2015-Apr-20 09:28N 34°30' E 135°18'0 0.1
2015-Apr-20 08:28N 34°30' E 135°18'0 0.1
2015-Apr-20 07:28N 34°30' E 135°18'0 0.1
2015-Apr-20 06:16N 34°30' E 135°18'0 0.0
2015-Apr-20 04:28N 34°30' E 135°18'6 6.7
2015-Apr-20 03:33N 34°31' E 135°11'1716.9
2015-Apr-20 02:33N 34°34' E 134°51'  
2015-Apr-17 22:26N 34°32' E 134°42'1921.6
2015-Apr-17 21:34N 34°36' E 135°04'  
Track history (hours):
 
Tides and Currents Weather Stations Pressure Air Temp Water Temp Dewpoint Dewpoint Depression Visibility Wind Speed Wind Dir Waves Ship Positions

Toyofukumaru

Last reported at 2015-Apr-27 21:32 UTC. Time now 2015-Apr-27 22:16 UTC.
Position N 35°36' E 140°06'.

Length 165 m; draft 6.2 m.

Type: Cargo ship. MMSI: 431200688.

Date/timePositionNaut miles runAvg speedWind from/ knotsBaromVisibWave heightAir tempDewpointWater temp
2015-Apr-27 21:32N 35°36' E 140°06'0 0.0
2015-Apr-27 20:27N 35°36' E 140°06'1010.8
2015-Apr-27 19:33N 35°31' E 139°56'1514.5
2015-Apr-27 18:33N 35°20' E 139°44'1111.1
2015-Apr-27 17:34N 35°09' E 139°46'1716.9
2015-Apr-27 16:33N 34°56' E 139°32'5818.0
2015-Apr-27 13:18N 34°26' E 138°31'178 6.2
2015-Apr-26 08:33N 33°57' E 134°59'1919.5
2015-Apr-26 07:33N 34°16' E 134°59'1918.8
2015-Apr-26 06:33N 34°35' E 135°04'  
2015-Apr-23 23:08N 34°32' E 134°42'1119.9
2015-Apr-23 22:33N 34°36' E 134°55'1212.2
2015-Apr-23 21:33N 34°26' E 135°03'1919.3
2015-Apr-23 20:33N 34°07' E 134°60'170 6.3
2015-Apr-22 17:33N 34°29' E 138°23'5717.8
2015-Apr-22 14:22N 34°55' E 139°25'1620.2
2015-Apr-22 13:33N 35°05' E 139°41'1413.7
2015-Apr-22 12:33N 35°18' E 139°44'7 6.6
2015-Apr-22 11:33N 35°23' E 139°39'0 0.0
2015-Apr-22 10:33N 35°23' E 139°39'0 0.0
2015-Apr-22 09:33N 35°23' E 139°39'0 0.0
2015-Apr-22 08:33N 35°23' E 139°39'0 0.0
2015-Apr-22 07:30N 35°23' E 139°39'1010.2
2015-Apr-22 06:33N 35°28' E 139°49'1514.8
2015-Apr-22 05:32N 35°36' E 140°05'0 0.0
2015-Apr-22 04:28N 35°36' E 140°05'0 0.0
2015-Apr-22 03:28N 35°36' E 140°05'0 0.0
2015-Apr-22 02:28N 35°36' E 140°05'0 0.0
2015-Apr-22 01:28N 35°36' E 140°05'0 0.0
2015-Apr-22 00:22N 35°36' E 140°05'0 0.0
2015-Apr-21 23:22N 35°36' E 140°05'0 0.0
2015-Apr-21 22:31N 35°36' E 140°05'9 9.9
2015-Apr-21 21:33N 35°31' E 139°55'1514.6
2015-Apr-21 20:33N 35°19' E 139°44'1413.7
2015-Apr-21 19:33N 35°06' E 139°46'1918.6
2015-Apr-21 18:33N 34°54' E 139°28'231 8.5
2015-Apr-20 15:20N 33°52' E 134°58'1620.3
2015-Apr-20 14:33N 34°08' E 134°58'1818.4
2015-Apr-20 13:33N 34°25' E 135°05'1210.8
2015-Apr-20 12:28N 34°30' E 135°18'0 0.0
2015-Apr-20 11:28N 34°30' E 135°18'0 0.0
2015-Apr-20 10:22N 34°30' E 135°18'0 0.0
2015-Apr-20 09:28N 34°30' E 135°18'0 0.1
2015-Apr-20 08:28N 34°30' E 135°18'0 0.1
2015-Apr-20 07:28N 34°30' E 135°18'0 0.1
2015-Apr-20 06:16N 34°30' E 135°18'0 0.0
2015-Apr-20 04:28N 34°30' E 135°18'6 6.7
2015-Apr-20 03:33N 34°31' E 135°11'1716.9
2015-Apr-20 02:33N 34°34' E 134°51'  
2015-Apr-17 22:26N 34°32' E 134°42'1921.6
2015-Apr-17 21:34N 34°36' E 135°04'  

Dump ship's entire track history